createdAt,value
2023-05-21T05:14:53.370Z,13.90
2023-05-21T05:19:55.278Z,13.80
2023-05-21T05:24:57.182Z,13.90
2023-05-21T05:29:59.077Z,14.00
2023-05-21T05:35:02.401Z,14.00
2023-05-21T05:40:05.754Z,14.10
2023-05-21T05:45:08.074Z,14.10
2023-05-21T05:50:10.320Z,14.10
2023-05-21T05:55:12.609Z,14.20
2023-05-21T06:00:14.984Z,14.30
2023-05-21T06:05:17.241Z,14.30
2023-05-21T06:10:20.722Z,14.40
2023-05-21T06:15:22.664Z,14.40
2023-05-21T06:20:24.625Z,14.50
2023-05-21T06:25:27.058Z,14.50
2023-05-21T06:30:28.901Z,14.60
2023-05-21T06:35:30.868Z,14.70
2023-05-21T06:40:32.784Z,14.70
2023-05-21T06:45:35.015Z,14.70
2023-05-21T06:50:37.103Z,14.80
2023-05-21T06:55:39.155Z,14.90
2023-05-21T07:00:41.129Z,15.00
2023-05-21T07:05:42.968Z,15.00
2023-05-21T07:10:44.866Z,15.10
2023-05-21T07:15:46.943Z,15.20
2023-05-21T07:20:48.895Z,15.30
2023-05-21T07:25:51.261Z,15.30
2023-05-21T07:30:53.181Z,15.50
2023-05-21T07:35:55.147Z,15.60
2023-05-21T07:40:57.444Z,15.70
2023-05-21T07:45:59.337Z,15.80
2023-05-21T07:51:01.447Z,15.90
2023-05-21T07:56:03.361Z,16.00
2023-05-21T08:01:06.316Z,16.20
2023-05-21T08:06:08.175Z,16.40
2023-05-21T08:11:10.164Z,16.50
2023-05-21T08:16:12.096Z,16.60
2023-05-21T08:21:14.034Z,16.80
2023-05-21T08:26:18.702Z,16.90
2023-05-21T08:31:21.456Z,17.00
2023-05-21T08:36:23.595Z,17.10
2023-05-21T08:41:26.965Z,17.40
2023-05-21T08:46:40.587Z,17.60
2023-05-21T08:51:42.600Z,17.80
2023-05-21T08:56:47.143Z,18.00
2023-05-21T09:01:50.084Z,18.20
2023-05-21T09:06:52.432Z,18.30
2023-05-21T09:11:54.315Z,18.40
2023-05-21T09:16:56.363Z,18.50
2023-05-21T09:22:03.803Z,18.60
2023-05-21T09:27:07.331Z,18.70
2023-05-21T09:32:10.328Z,18.80
2023-05-21T09:37:23.820Z,18.90
2023-05-21T09:42:29.910Z,19.10
2023-05-21T09:47:31.967Z,19.40
2023-05-21T09:52:36.730Z,19.50
2023-05-21T09:57:46.834Z,19.60
2023-05-21T10:02:54.819Z,19.60
2023-05-21T10:08:04.886Z,19.60
2023-05-21T10:13:09.170Z,19.80
2023-05-21T10:18:12.454Z,19.80
2023-05-21T10:23:14.565Z,19.90
2023-05-21T10:28:17.959Z,19.90
2023-05-21T10:33:20.454Z,19.90
2023-05-21T10:38:22.497Z,20.10
2023-05-21T10:43:51.397Z,20.40
2023-05-21T10:49:16.429Z,20.50
2023-05-21T10:54:49.970Z,20.50
2023-05-21T10:59:52.060Z,20.60
2023-05-21T11:05:00.924Z,21.20
2023-05-21T11:10:34.502Z,21.80
2023-05-21T11:15:58.576Z,22.20
2023-05-21T11:21:07.758Z,22.40
2023-05-21T11:26:09.641Z,22.50
2023-05-21T11:31:29.882Z,22.40
2023-05-21T11:36:32.281Z,22.50
2023-05-21T11:41:56.686Z,23.00
2023-05-21T11:46:58.954Z,23.30
2023-05-21T11:52:01.468Z,23.00
2023-05-21T11:57:07.147Z,22.50
2023-05-21T12:02:09.099Z,22.40
2023-05-21T12:07:11.615Z,22.90
2023-05-21T12:12:21.538Z,23.50
2023-05-21T12:17:24.915Z,24.00
2023-05-21T12:22:28.175Z,24.30
2023-05-21T12:27:31.245Z,24.50
2023-05-21T12:32:34.447Z,24.70
2023-05-21T12:37:37.043Z,24.80
2023-05-21T12:42:40.211Z,24.50
2023-05-21T12:47:42.134Z,24.00
2023-05-21T12:52:44.397Z,24.30
2023-05-21T12:57:46.653Z,25.00
2023-05-21T13:02:48.594Z,24.90
2023-05-21T13:07:51.689Z,24.80
2023-05-21T13:12:53.639Z,24.60
2023-05-21T13:17:57.245Z,24.90
2023-05-21T13:22:59.268Z,25.40
2023-05-21T13:28:03.070Z,25.20
2023-05-21T13:33:06.495Z,25.10
2023-05-21T13:38:08.500Z,25.30
2023-05-21T13:43:10.444Z,25.00
2023-05-21T13:48:12.990Z,25.00
2023-05-21T13:53:14.939Z,24.70
2023-05-21T13:58:17.104Z,24.70
2023-05-21T14:03:19.013Z,25.00
2023-05-21T14:08:21.822Z,25.10
2023-05-21T14:13:23.719Z,24.90
2023-05-21T14:18:25.705Z,24.90
2023-05-21T14:23:27.646Z,24.90
2023-05-21T14:28:29.548Z,25.60
2023-05-21T14:33:32.064Z,26.20
2023-05-21T14:38:33.989Z,26.30
2023-05-21T14:43:36.173Z,26.60
2023-05-21T14:48:38.007Z,27.00
2023-05-21T14:53:40.463Z,27.20
2023-05-21T14:58:42.382Z,27.10
2023-05-21T15:03:44.454Z,26.70
2023-05-21T15:08:46.494Z,26.60
2023-05-21T15:13:48.354Z,26.70
2023-05-21T15:18:50.769Z,26.80
2023-05-21T15:23:52.691Z,27.00
2023-05-21T15:28:54.634Z,27.10
2023-05-21T15:33:57.660Z,27.40
2023-05-21T15:39:03.455Z,27.00
2023-05-21T15:44:05.507Z,26.60
2023-05-21T15:49:07.634Z,26.70
2023-05-21T15:54:09.477Z,26.70
2023-05-21T15:59:11.999Z,26.70
2023-05-21T16:04:14.166Z,26.50
2023-05-21T16:09:16.411Z,26.00
2023-05-21T16:14:18.317Z,25.60
2023-05-21T16:19:20.219Z,25.60
2023-05-21T16:24:22.237Z,25.30
2023-05-21T16:29:24.126Z,25.30
2023-05-21T16:34:26.007Z,25.10
2023-05-21T16:39:27.907Z,24.90
2023-05-21T16:44:29.902Z,24.70
2023-05-21T16:49:31.906Z,24.60
2023-05-21T16:54:33.933Z,24.50
2023-05-21T16:59:35.805Z,24.40
2023-05-21T17:04:38.065Z,24.30
2023-05-21T17:09:39.946Z,24.30
2023-05-21T17:14:41.801Z,24.20
2023-05-21T17:19:44.713Z,23.90
2023-05-21T17:24:46.680Z,23.60
2023-05-21T17:29:48.544Z,23.50
2023-05-21T17:34:50.599Z,23.30
2023-05-21T17:39:52.676Z,23.30
2023-05-21T17:44:54.738Z,23.10
2023-05-21T17:49:56.629Z,23.00
2023-05-21T17:54:58.606Z,22.80
2023-05-21T18:00:00.516Z,22.60
2023-05-21T18:05:02.426Z,22.40
2023-05-21T18:10:04.780Z,22.20
2023-05-21T18:15:07.590Z,22.10
2023-05-21T18:20:10.009Z,21.90
2023-05-21T18:25:12.027Z,21.60
2023-05-21T18:30:14.258Z,21.60
2023-05-21T18:35:17.015Z,21.50
2023-05-21T18:40:21.898Z,21.40
2023-05-21T18:45:26.055Z,21.30
2023-05-21T18:50:27.942Z,21.20
2023-05-21T18:55:29.923Z,21.10
2023-05-21T19:00:31.918Z,20.90
2023-05-21T19:05:33.854Z,20.80
2023-05-21T19:15:39.369Z,20.60
2023-05-21T19:20:41.506Z,20.50
2023-05-21T19:25:43.598Z,20.40
2023-05-21T19:30:46.386Z,20.20
2023-05-21T19:35:48.414Z,20.00
